createdAt,value
2018-11-20T00:00:23.000Z,1.87
2018-11-20T00:03:30.040Z,1.88
2018-11-20T00:06:19.397Z,1.78
2018-11-20T00:09:06.547Z,1.77
2018-11-20T00:11:53.542Z,1.80
2018-11-20T00:14:45.194Z,1.75
2018-11-20T00:17:32.978Z,1.72
2018-11-20T00:20:27.975Z,1.82
2018-11-20T00:23:25.926Z,1.82
2018-11-20T00:26:23.290Z,1.79
2018-11-20T00:29:23.763Z,1.81
2018-11-20T00:32:12.172Z,1.79
2018-11-20T00:35:13.682Z,1.68
2018-11-20T00:38:06.122Z,1.71
2018-11-20T00:40:50.397Z,1.64
2018-11-20T00:43:33.464Z,1.71
2018-11-20T00:46:47.749Z,1.66
2018-11-20T00:49:54.123Z,1.64
2018-11-20T00:53:03.332Z,1.61
2018-11-20T00:56:20.386Z,1.68
2018-11-20T00:59:11.641Z,1.55
2018-11-20T01:01:59.335Z,1.58
2018-11-20T01:04:58.907Z,1.55
2018-11-20T01:07:46.460Z,1.51
2018-11-20T01:10:33.420Z,1.57
2018-11-20T01:13:21.181Z,1.55
2018-11-20T01:16:08.952Z,1.56
2018-11-20T01:18:57.757Z,1.49
2018-11-20T01:21:47.027Z,1.47
2018-11-20T01:24:54.213Z,1.56
2018-11-20T01:27:52.435Z,1.57
2018-11-20T01:30:56.193Z,1.47
2018-11-20T01:33:43.622Z,1.47
2018-11-20T01:36:33.435Z,1.40
2018-11-20T01:39:40.029Z,1.43
2018-11-20T01:42:27.742Z,1.39
2018-11-20T01:45:15.009Z,1.36
2018-11-20T01:48:12.977Z,1.50
2018-11-20T01:51:02.523Z,1.44
2018-11-20T01:54:09.070Z,1.49
2018-11-20T01:56:59.859Z,1.41
2018-11-20T01:59:53.826Z,1.46
2018-11-20T02:02:54.711Z,1.45
2018-11-20T02:05:47.901Z,1.48
2018-11-20T02:08:45.169Z,1.47
2018-11-20T02:11:37.214Z,1.45
2018-11-20T02:14:23.136Z,1.42
2018-11-20T02:17:16.379Z,1.54
2018-11-20T02:20:07.316Z,1.55
2018-11-20T02:23:01.603Z,1.49
2018-11-20T02:25:56.219Z,1.56
2018-11-20T02:28:49.789Z,1.56
2018-11-20T02:31:38.239Z,1.57
2018-11-20T02:34:21.127Z,1.55
2018-11-20T02:36:58.072Z,1.58
2018-11-20T02:39:45.711Z,1.62
2018-11-20T02:42:53.241Z,1.65
2018-11-20T02:45:43.007Z,1.54
2018-11-20T02:48:31.776Z,1.52
2018-11-20T02:51:18.668Z,1.64
2018-11-20T02:54:02.472Z,1.63
2018-11-20T02:56:45.122Z,1.56
2018-11-20T02:59:40.477Z,1.61
2018-11-20T03:02:29.316Z,1.61
2018-11-20T03:05:17.492Z,1.54
2018-11-20T03:08:06.001Z,1.56
2018-11-20T03:11:07.329Z,1.51
2018-11-20T03:13:54.268Z,1.49
2018-11-20T03:16:54.819Z,1.57
2018-11-20T03:19:42.036Z,1.59
2018-11-20T03:22:41.154Z,1.57
2018-11-20T03:26:02.160Z,1.59
2018-11-20T03:29:03.315Z,1.62
2018-11-20T03:31:42.753Z,1.56
2018-11-20T03:34:44.546Z,1.53
2018-11-20T03:37:44.987Z,1.56
2018-11-20T03:40:44.146Z,1.54
2018-11-20T03:43:41.716Z,1.61
2018-11-20T03:46:30.419Z,1.55
2018-11-20T03:49:19.574Z,1.54
2018-11-20T03:52:02.555Z,1.64
2018-11-20T03:54:53.312Z,1.62
2018-11-20T03:57:42.083Z,1.64
2018-11-20T04:00:40.284Z,1.62
2018-11-20T04:03:32.019Z,1.67
2018-11-20T04:06:23.297Z,1.60
2018-11-20T04:09:30.702Z,1.57
2018-11-20T04:12:19.567Z,1.58
2018-11-20T04:15:09.383Z,1.57
2018-11-20T04:18:00.835Z,1.56
2018-11-20T04:20:57.092Z,1.53
2018-11-20T04:23:46.335Z,1.56
2018-11-20T04:26:46.679Z,1.63
2018-11-20T04:29:35.818Z,1.58
2018-11-20T04:32:17.406Z,1.63
2018-11-20T04:35:00.934Z,1.67
2018-11-20T04:38:03.660Z,1.61
2018-11-20T04:41:03.629Z,1.58
2018-11-20T04:43:50.276Z,1.58
2018-11-20T04:46:31.765Z,1.61
2018-11-20T04:49:22.426Z,1.64
2018-11-20T04:52:25.091Z,1.65
2018-11-20T04:55:23.443Z,1.65
2018-11-20T04:58:25.420Z,1.68
2018-11-20T05:01:17.699Z,1.65
2018-11-20T05:04:07.202Z,1.69
2018-11-20T05:06:58.744Z,1.68
2018-11-20T05:09:50.800Z,1.67
2018-11-20T05:12:43.960Z,1.74
2018-11-20T05:15:31.736Z,1.80
2018-11-20T05:18:31.508Z,1.83
2018-11-20T05:21:18.358Z,1.82
2018-11-20T05:24:16.330Z,1.86
2018-11-20T05:27:12.769Z,1.74
2018-11-20T05:30:05.138Z,1.77
2018-11-20T05:32:52.740Z,1.80
2018-11-20T05:35:42.355Z,1.82
2018-11-20T05:38:40.133Z,1.89
2018-11-20T05:41:21.797Z,1.87
2018-11-20T05:44:21.981Z,1.81
2018-11-20T05:47:09.438Z,1.81
2018-11-20T05:50:06.506Z,1.81
2018-11-20T05:53:06.302Z,1.83
2018-11-20T05:55:57.119Z,1.86
2018-11-20T05:58:49.550Z,1.95
2018-11-20T06:01:41.067Z,1.86
2018-11-20T06:04:24.605Z,1.83
2018-11-20T06:07:20.005Z,1.85
2018-11-20T06:10:12.600Z,1.93
2018-11-20T06:12:54.147Z,1.90
2018-11-20T06:15:50.780Z,1.97
2018-11-20T06:18:57.445Z,1.95
2018-11-20T06:21:54.488Z,1.89
2018-11-20T06:24:50.553Z,1.89
2018-11-20T06:27:52.073Z,1.96
2018-11-20T06:30:39.510Z,1.87
2018-11-20T06:33:38.424Z,1.93
2018-11-20T06:36:27.774Z,1.96
2018-11-20T06:39:22.220Z,1.94
2018-11-20T06:42:18.366Z,1.86
2018-11-20T06:45:06.199Z,1.92
2018-11-20T06:47:56.368Z,1.88
2018-11-20T06:50:43.616Z,1.88
2018-11-20T06:53:31.338Z,1.94
2018-11-20T06:56:21.484Z,1.89
2018-11-20T06:59:09.119Z,2.00
2018-11-20T07:01:57.558Z,1.97
2018-11-20T07:04:48.606Z,2.08
2018-11-20T07:07:46.494Z,2.02
2018-11-20T07:10:39.835Z,2.05
2018-11-20T07:13:52.630Z,1.92
2018-11-20T07:16:56.227Z,2.00
2018-11-20T07:20:05.991Z,1.99
2018-11-20T07:22:54.119Z,1.90
2018-11-20T07:28:54.626Z,1.97
2018-11-20T07:31:42.165Z,2.00
2018-11-20T07:34:26.231Z,2.01
2018-11-20T07:37:15.167Z,2.08
2018-11-20T07:40:02.014Z,2.09
2018-11-20T07:42:51.802Z,2.09
2018-11-20T07:45:39.653Z,2.06
2018-11-20T07:48:27.473Z,2.11
2018-11-20T07:51:14.377Z,2.09
2018-11-20T07:54:02.955Z,2.23
2018-11-20T07:56:51.518Z,2.25
2018-11-20T07:59:53.500Z,2.17
2018-11-20T08:02:50.899Z,2.22
2018-11-20T08:05:33.592Z,2.35
2018-11-20T08:08:29.920Z,2.35
2018-11-20T08:11:20.215Z,2.35
2018-11-20T08:14:12.632Z,2.29
2018-11-20T08:17:00.918Z,2.40
2018-11-20T08:19:51.702Z,2.51
2018-11-20T08:23:00.986Z,2.45
2018-11-20T08:25:48.100Z,2.59
2018-11-20T08:28:49.206Z,2.44
2018-11-20T08:31:38.879Z,2.53
2018-11-20T08:34:25.026Z,2.54
2018-11-20T08:37:23.141Z,2.68
2018-11-20T08:40:16.356Z,2.65
2018-11-20T08:43:05.693Z,2.55
2018-11-20T08:45:52.569Z,2.63
2018-11-20T08:48:40.024Z,2.55
2018-11-20T08:51:30.734Z,2.59
2018-11-20T08:54:26.685Z,2.49
2018-11-20T08:57:15.890Z,2.62
2018-11-20T09:00:07.102Z,2.56
2018-11-20T09:03:04.749Z,2.59
2018-11-20T09:06:03.546Z,2.78
2018-11-20T09:08:50.924Z,2.71
2018-11-20T09:11:39.733Z,2.93
2018-11-20T09:14:43.678Z,2.94
2018-11-20T09:17:32.084Z,2.84
2018-11-20T09:20:19.845Z,2.79
2018-11-20T09:23:10.820Z,2.90
2018-11-20T09:26:03.725Z,2.84
2018-11-20T09:28:51.365Z,2.98
2018-11-20T09:31:48.083Z,3.06
2018-11-20T09:38:34.773Z,3.10
2018-11-20T09:41:39.255Z,3.07
2018-11-20T09:45:15.251Z,3.14
2018-11-20T09:48:33.632Z,3.16
2018-11-20T09:51:46.740Z,3.06
2018-11-20T09:54:47.395Z,3.02
2018-11-20T09:57:35.931Z,2.96
2018-11-20T10:00:35.755Z,2.92
2018-11-20T10:03:26.834Z,2.91
2018-11-20T10:06:29.820Z,2.88
2018-11-20T10:09:20.545Z,2.98
2018-11-20T10:12:08.893Z,2.99
2018-11-20T10:14:59.329Z,3.04
2018-11-20T10:18:02.000Z,3.07
2018-11-20T10:20:58.025Z,3.05
2018-11-20T10:23:53.929Z,2.98
2018-11-20T10:26:52.098Z,2.99
2018-11-20T10:29:45.092Z,2.99
2018-11-20T10:32:48.553Z,3.04
2018-11-20T10:35:35.609Z,3.11
2018-11-20T10:38:40.477Z,3.02
2018-11-20T10:41:31.703Z,2.95
2018-11-20T10:44:26.330Z,3.03
2018-11-20T10:47:17.100Z,2.98
2018-11-20T10:50:04.803Z,2.96
2018-11-20T10:52:51.541Z,2.91
2018-11-20T10:55:29.742Z,2.85
2018-11-20T10:58:16.726Z,2.79
2018-11-20T11:01:03.949Z,2.85
2018-11-20T11:03:51.120Z,2.84
2018-11-20T11:06:49.462Z,2.83
2018-11-20T11:09:40.542Z,2.83
2018-11-20T11:12:32.895Z,2.86
2018-11-20T11:15:24.048Z,2.85
2018-11-20T11:18:30.996Z,2.98
2018-11-20T11:21:21.807Z,2.97
2018-11-20T11:24:14.736Z,2.99
2018-11-20T11:27:15.212Z,2.95
2018-11-20T11:30:31.783Z,2.90
2018-11-20T11:33:31.010Z,2.97
2018-11-20T11:36:39.156Z,2.90
2018-11-20T11:39:31.353Z,2.93
2018-11-20T11:42:39.149Z,2.85
2018-11-20T11:45:31.373Z,2.95
2018-11-20T11:48:23.253Z,2.97
2018-11-20T11:51:23.730Z,2.94
2018-11-20T11:54:06.919Z,2.97
2018-11-20T11:56:55.299Z,2.91
2018-11-20T11:59:51.631Z,3.04
2018-11-20T12:05:39.409Z,3.03
2018-11-20T12:08:35.870Z,2.99
2018-11-20T12:11:27.883Z,2.97
2018-11-20T12:14:16.846Z,2.91
2018-11-20T12:17:13.294Z,3.02
2018-11-20T12:19:54.287Z,2.85
2018-11-20T12:22:47.298Z,2.79
2018-11-20T12:25:47.597Z,2.53
2018-11-20T12:28:41.372Z,2.52
2018-11-20T12:31:28.730Z,2.32
2018-11-20T12:34:35.558Z,1.98
2018-11-20T12:37:28.822Z,2.01
2018-11-20T12:40:35.799Z,1.81
2018-11-20T12:43:35.633Z,1.89
2018-11-20T12:57:14.953Z,1.84
2018-11-20T13:15:51.498Z,1.83
2018-11-20T13:21:04.718Z,1.93
2018-11-20T13:26:19.148Z,1.76
2018-11-20T13:29:07.913Z,1.67
2018-11-20T13:40:28.647Z,1.88
2018-11-20T13:43:03.797Z,1.76
2018-11-20T13:48:19.265Z,1.88
2018-11-20T13:53:32.710Z,1.91
2018-11-20T13:58:47.179Z,1.83
2018-11-20T14:04:11.894Z,1.91
2018-11-20T14:06:49.149Z,1.81
2018-11-20T14:12:03.925Z,1.71
2018-11-20T14:17:20.521Z,1.75
2018-11-20T14:20:02.014Z,1.75
2018-11-20T14:23:10.246Z,1.75
2018-11-20T14:26:12.865Z,1.75
2018-11-20T14:51:12.365Z,1.78
2018-11-20T14:54:07.036Z,1.82
2018-11-20T14:59:22.057Z,1.77
2018-11-20T15:05:20.294Z,1.69
2018-11-20T15:08:28.945Z,1.78
2018-11-20T15:11:27.561Z,1.82
2018-11-20T15:14:36.483Z,1.75
2018-11-20T15:28:21.053Z,1.92
2018-11-20T15:31:11.990Z,1.86
2018-11-20T15:33:58.017Z,1.78
2018-11-20T15:36:47.605Z,1.94
2018-11-20T15:58:04.509Z,1.82
2018-11-20T16:00:59.124Z,1.87
2018-11-20T16:03:42.481Z,1.91
2018-11-20T16:06:41.966Z,1.82
2018-11-20T16:12:09.101Z,1.93
2018-11-20T16:25:17.062Z,1.87
2018-11-20T16:27:50.347Z,1.83
2018-11-20T16:31:08.415Z,1.90
2018-11-20T16:34:10.279Z,1.94
2018-11-20T16:37:10.156Z,2.04
2018-11-20T16:42:15.507Z,2.08
2018-11-20T16:44:51.217Z,2.07
2018-11-20T16:47:58.958Z,2.03
2018-11-20T16:50:53.713Z,2.16
2018-11-20T16:58:48.440Z,1.88
2018-11-20T17:01:21.823Z,1.79
2018-11-20T17:03:55.135Z,1.89
2018-11-20T17:06:59.982Z,1.86
2018-11-20T17:09:52.151Z,1.94
2018-11-20T17:23:18.030Z,1.84
2018-11-20T17:31:20.546Z,1.90
2018-11-20T17:33:58.847Z,1.87
2018-11-20T17:39:34.587Z,1.74
2018-11-20T17:42:35.467Z,1.86
2018-11-20T17:45:28.971Z,1.82
2018-11-20T17:48:31.843Z,1.84
2018-11-20T17:51:04.600Z,1.86
2018-11-20T17:54:05.234Z,1.75
2018-11-20T17:56:52.686Z,1.85
2018-11-20T17:59:48.721Z,1.73
2018-11-20T18:03:04.084Z,1.72
2018-11-20T18:06:21.790Z,1.82
2018-11-20T18:09:24.199Z,1.79
2018-11-20T18:12:48.031Z,1.88
2018-11-20T18:15:53.302Z,1.87
2018-11-20T18:19:11.657Z,1.95
2018-11-20T18:22:31.912Z,2.06
2018-11-20T18:25:23.228Z,2.05
2018-11-20T18:28:11.583Z,2.12
2018-11-20T18:30:48.910Z,2.06
2018-11-20T18:33:35.794Z,1.96
2018-11-20T18:36:24.697Z,2.09
2018-11-20T18:39:35.188Z,2.01
2018-11-20T18:42:56.547Z,2.08
2018-11-20T18:46:02.967Z,1.95
2018-11-20T18:52:51.591Z,2.13
2018-11-20T18:55:43.793Z,2.07
2018-11-20T18:58:30.257Z,1.96
2018-11-20T19:01:28.782Z,1.97
2018-11-20T19:04:16.315Z,1.97
2018-11-20T19:07:06.291Z,1.99
2018-11-20T19:10:29.006Z,2.18
2018-11-20T19:13:25.026Z,2.03
2018-11-20T19:16:29.137Z,2.11
2018-11-20T19:19:43.614Z,2.13
2018-11-20T19:22:43.374Z,2.19
2018-11-20T19:25:36.804Z,2.21
2018-11-20T19:28:10.999Z,2.13
2018-11-20T19:31:02.570Z,2.14
2018-11-20T19:36:30.045Z,2.16
2018-11-20T19:41:58.596Z,2.19
2018-11-20T19:44:56.102Z,2.21
2018-11-20T19:47:44.685Z,2.23
2018-11-20T19:50:44.352Z,2.21
2018-11-20T19:53:31.687Z,2.19
2018-11-20T19:56:30.865Z,2.20
2018-11-20T19:59:27.146Z,2.23
2018-11-20T20:02:15.003Z,2.22
2018-11-20T20:05:18.780Z,2.17
2018-11-20T20:08:20.210Z,2.22
2018-11-20T20:11:08.053Z,2.09
2018-11-20T20:13:57.690Z,2.10
2018-11-20T20:16:58.266Z,2.18
2018-11-20T20:19:48.497Z,2.30
2018-11-20T20:22:38.914Z,2.32
2018-11-20T20:25:39.269Z,2.37
2018-11-20T20:28:39.245Z,2.30
2018-11-20T20:31:29.439Z,2.22
2018-11-20T20:34:17.734Z,2.28
2018-11-20T20:37:04.835Z,2.22
2018-11-20T20:40:11.317Z,2.13
2018-11-20T20:43:10.873Z,2.17
2018-11-20T20:46:16.583Z,2.11
2018-11-20T20:49:02.945Z,2.14
2018-11-20T20:52:01.285Z,2.14
2018-11-20T20:55:21.841Z,2.14
2018-11-20T20:58:11.881Z,2.11
2018-11-20T21:01:00.355Z,2.25
2018-11-20T21:03:57.483Z,2.13
2018-11-20T21:06:41.219Z,2.19
2018-11-20T21:09:41.827Z,2.04
2018-11-20T21:12:34.312Z,2.07
2018-11-20T21:15:21.197Z,2.09
2018-11-20T21:18:22.518Z,2.06
2018-11-20T21:21:22.710Z,2.09
2018-11-20T21:24:22.716Z,2.16
2018-11-20T21:27:17.634Z,2.19
2018-11-20T21:30:12.931Z,2.24
2018-11-20T21:33:05.359Z,2.25
2018-11-20T21:35:55.737Z,2.19
2018-11-20T21:38:55.909Z,2.37
2018-11-20T21:41:38.723Z,2.29
2018-11-20T21:44:38.891Z,2.18
2018-11-20T21:47:20.707Z,2.18
2018-11-20T21:50:09.391Z,2.21
2018-11-20T21:52:59.994Z,2.24
2018-11-20T21:56:01.261Z,2.17
2018-11-20T21:58:58.446Z,2.33
2018-11-20T22:01:56.451Z,2.24
2018-11-20T22:04:50.346Z,2.30
2018-11-20T22:07:47.783Z,2.39
2018-11-20T22:10:40.636Z,2.37
2018-11-20T22:13:34.376Z,2.34
2018-11-20T22:16:23.122Z,2.37
2018-11-20T22:19:27.438Z,2.36
2018-11-20T22:22:18.678Z,2.38
2018-11-20T22:25:13.149Z,2.36
2018-11-20T22:28:01.771Z,2.34
2018-11-20T22:30:53.421Z,2.32
2018-11-20T22:33:56.330Z,2.39
2018-11-20T22:36:42.740Z,2.38
2018-11-20T22:39:33.183Z,2.45
2018-11-20T22:42:27.914Z,2.50
2018-11-20T22:45:16.118Z,2.43
2018-11-20T22:48:02.799Z,2.43
2018-11-20T22:50:56.775Z,2.33
2018-11-20T22:53:47.831Z,2.33
2018-11-20T22:56:34.752Z,2.26
2018-11-20T22:59:21.071Z,2.20
2018-11-20T23:02:10.345Z,2.16
2018-11-20T23:05:11.857Z,2.18
2018-11-20T23:07:57.633Z,2.16
2018-11-20T23:10:30.644Z,2.22
2018-11-20T23:13:00.718Z,2.28
2018-11-20T23:15:31.674Z,2.27
2018-11-20T23:18:02.184Z,2.33
2018-11-20T23:20:33.777Z,2.38
2018-11-20T23:23:03.996Z,2.31
2018-11-20T23:25:36.306Z,2.12
2018-11-20T23:28:06.919Z,2.01
2018-11-20T23:30:41.804Z,1.96
2018-11-20T23:33:15.285Z,1.90
2018-11-20T23:35:46.794Z,1.94
2018-11-20T23:38:17.285Z,1.83
2018-11-20T23:40:46.994Z,1.81
2018-11-20T23:43:18.155Z,1.92
2018-11-20T23:45:48.165Z,1.86
2018-11-20T23:48:19.882Z,1.83
2018-11-20T23:50:50.396Z,1.82
2018-11-20T23:53:22.247Z,1.77
2018-11-20T23:55:52.345Z,1.72
2018-11-20T23:58:23.833Z,1.66
